This is the latest recevied weather packets stored in our database for station/object WX4LTG. If no packets are shown the sender has not sent any weather packets the latest 1 day(s).
| Time | Temp. | Humidity | Pressure | Rain* | Wind** | Luminosity | Snow |
|---|---|---|---|---|---|---|---|
| 1778099768 | 26.11° C | 23% | 1014.4 hPa | 0 mm | - | 722 W/m² | - |
| 1778099464 | 26.67° C | 23% | 1014.5 hPa | 0 mm | - | 728 W/m² | - |
| 1778099162 | 26.67° C | 23% | 1014.6 hPa | 0 mm | - | 731 W/m² | - |
| 1778098858 | 26.67° C | 23% | 1014.7 hPa | 0 mm | - | 734 W/m² | - |
| 1778098252 | 26.67° C | 22% | 1014.7 hPa | 0 mm | - | 741 W/m² | - |
| 1778097948 | 26.67° C | 22% | 1014.6 hPa | 0 mm | - | 745 W/m² | - |
| 1778096736 | 25° C | 24% | 1015 hPa | 0 mm | - | 752 W/m² | - |
| 1778095219 | 25° C | 25% | 1015.4 hPa | 0 mm | - | 752 W/m² | - |
| 1778094916 | 25.56° C | 24% | 1015.4 hPa | 0 mm | - | 751 W/m² | - |
| 1778093097 | 25° C | 26% | 1015.9 hPa | 0 mm | - | 740 W/m² | - |
| 1778092490 | 25° C | 26% | 1015.9 hPa | 0 mm | - | 726 W/m² | - |
| 1778092187 | 25° C | 27% | 1016.1 hPa | 0 mm | - | 720 W/m² | - |
| 1778090976 | 23.89° C | 29% | 1016.4 hPa | 0 mm | - | 679 W/m² | - |
| 1778090066 | 23.89° C | 30% | 1016.6 hPa | 0 mm | - | 662 W/m² | - |
| 1778089763 | 23.89° C | 30% | 1016.3 hPa | 0 mm | - | 667 W/m² | - |
| 1778088248 | 22.78° C | 32% | 1016.6 hPa | 0 mm | - | 623 W/m² | - |
| 1778087036 | 22.78° C | 33% | 1016.3 hPa | 0 mm | - | 583 W/m² | - |
| 1778084612 | 21.67° C | 34% | 1016.3 hPa | 0 mm | - | 489 W/m² | - |
| 1778084309 | 21.67° C | 34% | 1016.3 hPa | 0 mm | - | 476 W/m² | - |
| 1778083704 | 21.67° C | 34% | 1016.3 hPa | 0 mm | - | 449 W/m² | - |
| 1778083099 | 21.11° C | 35% | 1016.3 hPa | 0 mm | - | 423 W/m² | - |
| 1778080457 | 20° C | 38% | 1016.4 hPa | 0 mm | - | 297 W/m² | - |
| 1778077127 | 17.22° C | 44% | 1016.1 hPa | 0 mm | - | 143 W/m² | - |
| 1778074096 | 16.11° C | 50% | 1015.4 hPa | 0 mm | - | 46 W/m² | - |
| 1778073187 | 15.56° C | 53% | 1015.3 hPa | 0 mm | - | 28 W/m² | - |
* Rain latest hour (hover to see other rain measurements)
** Current wind speed in m/s (hover to see current wind gust speed)